Time;durP1;ratioP1;P1;durP2;ratioP2;P2;SDS_P1;SDS_P2;PMS_P1;PMS_P2;Temp;Humidity;BMP_temperature;BMP_pressure;BME280_temperature;BME280_humidity;BME280_pressure;Samples;Min_cycle;Max_cycle;Signal;HPM_P1;HPM_P2
2021/12/16 00:08:41;;;;;;;21.42;10.63;;;;;;;;;;4972287;28;20035;-37
2021/12/16 00:11:24;;;;;;;16.95;8.77;;;;;;;;;;4970853;28;20037;-36
2021/12/16 00:19:41;;;;;;;20.35;9.85;;;;;;;;;;4975967;28;20066;-36
2021/12/16 00:30:12;;;;;;;22.73;9.45;;;;;;;;;;4967238;28;20042;-37
2021/12/16 00:35:07;;;;;;;28.92;10.55;;;;;;;;;;4973831;28;20348;-39
2021/12/16 00:37:33;;;;;;;22.50;9.73;;;;;;;;;;4965931;28;20027;-38
2021/12/16 00:39:59;;;;;;;19.60;8.75;;;;;;;;;;4971921;28;20481;-38
2021/12/16 00:42:52;;;;;;;22.00;9.05;;;;;;;;;;4965770;28;20106;-38
2021/12/16 00:45:31;;;;;;;16.95;8.73;;;;;;;;;;4971760;28;20031;-36
2021/12/16 00:48:20;;;;;;;26.08;10.45;;;;;;;;;;4972507;28;20466;-38
2021/12/16 00:56:01;;;;;;;24.50;10.23;;;;;;;;;;4968003;28;20056;-38
2021/12/16 00:58:31;;;;;;;18.73;9.40;;;;;;;;;;4975108;28;20023;-36
2021/12/16 01:01:04;;;;;;;19.42;8.82;;;;;;;;;;4969499;28;20026;-37
2021/12/16 01:03:43;;;;;;;17.52;9.35;;;;;;;;;;4970445;28;20549;-36
2021/12/16 01:06:38;;;;;;;19.95;8.90;;;;;;;;;;4972289;28;20034;-38
2021/12/16 01:37:30;;;;;;;15.23;9.20;;;;;;;;;;4971789;28;20135;-36
2021/12/16 01:45:26;;;;;;;25.80;10.07;;;;;;;;;;4977790;28;20123;-37
2021/12/16 01:50:47;;;;;;;25.85;9.70;;;;;;;;;;4972312;28;20053;-37
2021/12/16 01:53:48;;;;;;;31.42;10.68;;;;;;;;;;4976973;28;20505;-40
2021/12/16 01:56:18;;;;;;;26.90;10.15;;;;;;;;;;4973632;28;20081;-37
2021/12/16 01:58:45;;;;;;;22.75;9.20;;;;;;;;;;4974733;28;20406;-39
2021/12/16 02:01:19;;;;;;;20.67;11.55;;;;;;;;;;4972022;28;20027;-38
2021/12/16 02:03:51;;;;;;;29.63;10.50;;;;;;;;;;4975972;28;20023;-36
2021/12/16 02:08:45;;;;;;;21.50;10.50;;;;;;;;;;4978734;28;20039;-36
2021/12/16 02:27:22;;;;;;;32.83;12.45;;;;;;;;;;4972862;28;20117;-37
2021/12/16 02:27:47;;;;;;;31.30;12.17;;;;;;;;;;4977605;28;20100;-37
2021/12/16 02:35:33;;;;;;;29.30;11.55;;;;;;;;;;4979104;28;20147;-36
2021/12/16 02:38:02;;;;;;;27.63;10.85;;;;;;;;;;4984478;28;20477;-37
2021/12/16 02:40:28;;;;;;;29.20;12.20;;;;;;;;;;4977129;28;20129;-36
2021/12/16 02:50:52;;;;;;;33.53;12.52;;;;;;;;;;4975951;28;20085;-36
2021/12/16 02:53:18;;;;;;;27.63;13.07;;;;;;;;;;4989596;28;20034;-36
2021/12/16 02:55:46;;;;;;;28.50;14.50;;;;;;;;;;4975301;28;20057;-36
2021/12/16 02:58:12;;;;;;;31.98;12.80;;;;;;;;;;4982815;28;20023;-37
2021/12/16 03:00:40;;;;;;;36.42;14.43;;;;;;;;;;4975261;28;20121;-37
2021/12/16 03:03:06;;;;;;;37.70;13.52;;;;;;;;;;4980073;28;20047;-37
2021/12/16 03:05:32;;;;;;;30.25;13.35;;;;;;;;;;4968134;28;20076;-38
2021/12/16 03:07:59;;;;;;;23.83;12.32;;;;;;;;;;4975285;28;20026;-37
2021/12/16 03:13:05;;;;;;;34.95;13.77;;;;;;;;;;4968402;28;20066;-38
2021/12/16 03:20:47;;;;;;;37.15;14.35;;;;;;;;;;4964385;28;20026;-36
2021/12/16 03:29:00;;;;;;;41.65;16.48;;;;;;;;;;4964454;28;20097;-36
2021/12/16 03:36:49;;;;;;;35.67;17.10;;;;;;;;;;4974063;28;20034;-36
2021/12/16 03:39:15;;;;;;;48.55;16.15;;;;;;;;;;4974088;28;20159;-37
2021/12/16 03:41:41;;;;;;;34.20;17.08;;;;;;;;;;4965317;28;20390;-37
2021/12/16 03:44:10;;;;;;;36.42;15.50;;;;;;;;;;4973374;28;20077;-41
2021/12/16 03:46:38;;;;;;;41.50;15.93;;;;;;;;;;4967149;28;20038;-36
2021/12/16 03:49:22;;;;;;;37.38;17.38;;;;;;;;;;4966238;28;20426;-36
2021/12/16 03:51:50;;;;;;;46.03;17.30;;;;;;;;;;4966946;28;20066;-37
2021/12/16 03:54:16;;;;;;;41.10;19.08;;;;;;;;;;4973066;28;20023;-38
2021/12/16 03:56:43;;;;;;;42.55;18.20;;;;;;;;;;4990615;23;20100;-41
2021/12/16 03:59:10;;;;;;;46.85;18.65;;;;;;;;;;4978990;28;20604;-41
2021/12/16 04:01:36;;;;;;;41.72;18.95;;;;;;;;;;4982396;28;20065;-41
2021/12/16 04:04:03;;;;;;;43.80;20.50;;;;;;;;;;4976142;28;20092;-41
2021/12/16 04:06:30;;;;;;;50.72;20.15;;;;;;;;;;4968566;28;20023;-41
2021/12/16 04:08:57;;;;;;;51.40;21.83;;;;;;;;;;4959855;28;20034;-41
2021/12/16 04:11:26;;;;;;;51.50;19.83;;;;;;;;;;4961869;28;20412;-42
2021/12/16 04:14:00;;;;;;;57.95;20.13;;;;;;;;;;4958880;28;20522;-43
2021/12/16 04:16:37;;;;;;;52.47;21.40;;;;;;;;;;4961838;28;20058;-41
2021/12/16 04:19:07;;;;;;;65.25;22.50;;;;;;;;;;4961420;28;20054;-41
2021/12/16 04:21:33;;;;;;;64.15;22.60;;;;;;;;;;4962587;28;20142;-41
2021/12/16 04:24:00;;;;;;;55.90;22.42;;;;;;;;;;4959713;28;20023;-41
2021/12/16 04:26:27;;;;;;;56.83;20.83;;;;;;;;;;4958633;28;20019;-41
2021/12/16 04:28:53;;;;;;;56.38;21.23;;;;;;;;;;4960340;28;20058;-43
2021/12/16 04:31:19;;;;;;;54.88;22.23;;;;;;;;;;4958762;28;20455;-41
2021/12/16 04:33:45;;;;;;;58.22;22.23;;;;;;;;;;4959104;28;20073;-43
2021/12/16 04:36:12;;;;;;;55.95;22.73;;;;;;;;;;4958374;28;20033;-43
2021/12/16 04:38:39;;;;;;;54.08;21.48;;;;;;;;;;4959895;28;20023;-43
2021/12/16 04:41:09;;;;;;;62.83;23.52;;;;;;;;;;4964863;28;20061;-40
2021/12/16 04:43:40;;;;;;;56.65;21.40;;;;;;;;;;4962107;28;20071;-42
2021/12/16 04:46:18;;;;;;;64.28;22.00;;;;;;;;;;4959128;28;20069;-42
2021/12/16 04:48:45;;;;;;;59.55;20.20;;;;;;;;;;4961051;28;20031;-43
2021/12/16 04:51:12;;;;;;;58.83;22.45;;;;;;;;;;4957544;28;20442;-43
2021/12/16 04:53:38;;;;;;;66.90;23.63;;;;;;;;;;4962353;28;20062;-43
2021/12/16 04:56:06;;;;;;;65.90;23.10;;;;;;;;;;4960833;28;20058;-42
2021/12/16 04:58:32;;;;;;;51.88;21.77;;;;;;;;;;4962402;28;20174;-43
2021/12/16 05:00:58;;;;;;;70.95;25.23;;;;;;;;;;4960468;28;20165;-43
2021/12/16 05:03:24;;;;;;;60.88;23.70;;;;;;;;;;4962942;28;20082;-42
2021/12/16 05:05:51;;;;;;;72.10;25.65;;;;;;;;;;4961866;28;20110;-42
2021/12/16 05:08:17;;;;;;;63.22;24.50;;;;;;;;;;4957576;28;20542;-43
2021/12/16 05:10:44;;;;;;;62.72;24.50;;;;;;;;;;4961819;28;20144;-43
2021/12/16 05:13:10;;;;;;;77.43;23.98;;;;;;;;;;4965200;28;20525;-43
2021/12/16 05:15:40;;;;;;;70.85;24.55;;;;;;;;;;4970482;28;20035;-42
2021/12/16 05:18:08;;;;;;;67.60;26.00;;;;;;;;;;4972316;28;20034;-43
2021/12/16 05:20:39;;;;;;;80.50;25.58;;;;;;;;;;4970543;28;20131;-43
2021/12/16 05:26:16;;;;;;;64.07;22.92;;;;;;;;;;4971606;28;20056;-42
2021/12/16 05:28:47;;;;;;;71.90;24.73;;;;;;;;;;4970068;28;20512;-43
2021/12/16 05:31:14;;;;;;;64.90;24.45;;;;;;;;;;4970896;28;20027;-43
2021/12/16 05:33:40;;;;;;;76.95;25.92;;;;;;;;;;4971024;28;20027;-43
2021/12/16 05:36:06;;;;;;;58.20;23.75;;;;;;;;;;4971520;28;20057;-42
2021/12/16 05:38:32;;;;;;;70.55;24.77;;;;;;;;;;4970530;28;20035;-43
2021/12/16 05:40:59;;;;;;;77.72;25.42;;;;;;;;;;4970591;28;20039;-42
2021/12/16 05:43:25;;;;;;;75.47;25.42;;;;;;;;;;4970813;28;20096;-43
2021/12/16 05:45:53;;;;;;;78.78;25.02;;;;;;;;;;4969474;28;20041;-43
2021/12/16 05:48:21;;;;;;;64.82;23.90;;;;;;;;;;4970811;28;20595;-43
2021/12/16 05:50:49;;;;;;;69.63;23.98;;;;;;;;;;4970498;28;20362;-42
2021/12/16 05:53:16;;;;;;;72.30;22.63;;;;;;;;;;4967605;28;20026;-43
2021/12/16 05:55:42;;;;;;;78.80;23.45;;;;;;;;;;4970777;28;20445;-43
2021/12/16 05:58:10;;;;;;;72.22;23.65;;;;;;;;;;4968436;28;20525;-43
2021/12/16 06:00:40;;;;;;;70.03;23.95;;;;;;;;;;4956046;28;20405;-43
2021/12/16 06:03:06;;;;;;;57.38;22.38;;;;;;;;;;4956916;28;20573;-42
2021/12/16 06:05:32;;;;;;;79.35;25.35;;;;;;;;;;4957339;28;20069;-42
2021/12/16 06:07:58;;;;;;;71.45;22.52;;;;;;;;;;4958469;28;20081;-43
2021/12/16 06:12:53;;;;;;;81.22;24.80;;;;;;;;;;4962307;28;20043;-42
2021/12/16 06:15:35;;;;;;;89.68;26.58;;;;;;;;;;4959368;28;20035;-42
2021/12/16 06:26:49;;;;;;;77.93;24.90;;;;;;;;;;4958485;28;20452;-42
2021/12/16 06:29:15;;;;;;;75.72;25.77;;;;;;;;;;4963896;28;20024;-42
2021/12/16 06:31:41;;;;;;;78.00;24.27;;;;;;;;;;4962917;28;20038;-42
2021/12/16 06:34:07;;;;;;;66.88;25.00;;;;;;;;;;4965781;28;20441;-42
2021/12/16 06:36:33;;;;;;;88.82;25.83;;;;;;;;;;4961605;28;20113;-42
2021/12/16 06:38:59;;;;;;;81.43;26.15;;;;;;;;;;4965874;28;20031;-42
2021/12/16 06:41:28;;;;;;;77.07;24.38;;;;;;;;;;4960765;28;20027;-42
2021/12/16 06:43:56;;;;;;;100.43;26.30;;;;;;;;;;4965438;28;20063;-43
2021/12/16 06:46:31;;;;;;;76.57;27.52;;;;;;;;;;4963083;28;20023;-42
2021/12/16 06:48:59;;;;;;;67.82;23.98;;;;;;;;;;4961405;28;20034;-42
2021/12/16 06:51:37;;;;;;;72.13;25.38;;;;;;;;;;4959679;28;20054;-42
2021/12/16 06:54:08;;;;;;;90.43;26.45;;;;;;;;;;4962132;28;20059;-42
2021/12/16 06:56:48;;;;;;;68.63;24.88;;;;;;;;;;4964653;28;20382;-42
2021/12/16 06:59:23;;;;;;;73.22;24.73;;;;;;;;;;4960955;28;20043;-42
2021/12/16 07:02:04;;;;;;;79.00;25.00;;;;;;;;;;4964829;28;20055;-42
2021/12/16 07:04:30;;;;;;;81.30;25.30;;;;;;;;;;4964148;28;20031;-42
2021/12/16 07:06:57;;;;;;;86.65;26.95;;;;;;;;;;4965233;28;20031;-42
2021/12/16 07:09:23;;;;;;;79.70;25.58;;;;;;;;;;4960019;28;20057;-42
2021/12/16 07:11:52;;;;;;;86.18;25.80;;;;;;;;;;4962344;28;20117;-42
2021/12/16 07:14:19;;;;;;;82.65;25.10;;;;;;;;;;4959456;28;20030;-42
2021/12/16 07:16:50;;;;;;;74.40;26.17;;;;;;;;;;4962282;28;20072;-42
2021/12/16 07:19:16;;;;;;;81.13;25.52;;;;;;;;;;4961703;28;20054;-42
2021/12/16 07:21:43;;;;;;;64.40;25.35;;;;;;;;;;4962333;28;20713;-42
2021/12/16 07:24:10;;;;;;;81.57;26.60;;;;;;;;;;4959590;28;20379;-42
2021/12/16 07:26:37;;;;;;;85.78;25.92;;;;;;;;;;4965565;28;20015;-42
2021/12/16 07:29:05;;;;;;;78.10;25.63;;;;;;;;;;4965979;28;20116;-42
2021/12/16 07:31:31;;;;;;;85.53;27.30;;;;;;;;;;4964291;28;20142;-42
2021/12/16 07:33:57;;;;;;;75.70;24.80;;;;;;;;;;4958877;28;20522;-42
2021/12/16 07:36:24;;;;;;;76.97;25.50;;;;;;;;;;4959876;28;20064;-42
2021/12/16 07:38:50;;;;;;;76.07;25.25;;;;;;;;;;4960301;28;20524;-42
2021/12/16 07:41:20;;;;;;;68.78;23.63;;;;;;;;;;4959790;28;20066;-42
2021/12/16 07:44:09;;;;;;;84.28;25.10;;;;;;;;;;4964879;28;20026;-41
2021/12/16 07:46:46;;;;;;;74.50;24.85;;;;;;;;;;4961363;28;20034;-42
2021/12/16 07:49:14;;;;;;;78.47;25.52;;;;;;;;;;4965305;28;20031;-42
2021/12/16 07:51:41;;;;;;;64.97;23.98;;;;;;;;;;4961127;28;20049;-41
2021/12/16 07:54:07;;;;;;;80.82;26.20;;;;;;;;;;4960493;28;20027;-36
2021/12/16 07:56:33;;;;;;;86.60;24.40;;;;;;;;;;4967882;28;20321;-37
2021/12/16 07:58:59;;;;;;;72.47;25.13;;;;;;;;;;4965830;28;20077;-37
2021/12/16 08:01:27;;;;;;;77.10;26.75;;;;;;;;;;4968847;28;20065;-37
2021/12/16 08:03:53;;;;;;;76.53;27.17;;;;;;;;;;4966187;28;20027;-37
2021/12/16 08:06:22;;;;;;;69.95;24.23;;;;;;;;;;4963127;28;20199;-40
2021/12/16 08:08:49;;;;;;;77.97;26.98;;;;;;;;;;4956645;28;20074;-40
2021/12/16 08:11:16;;;;;;;68.40;25.17;;;;;;;;;;4967990;28;20117;-40
2021/12/16 08:13:42;;;;;;;76.40;25.02;;;;;;;;;;4969210;28;20026;-37
2021/12/16 08:16:08;;;;;;;72.50;25.08;;;;;;;;;;4969218;28;20597;-39
2021/12/16 08:18:34;;;;;;;66.57;25.15;;;;;;;;;;4955627;28;20667;-37
2021/12/16 08:21:00;;;;;;;80.05;25.13;;;;;;;;;;4955616;28;20019;-40
2021/12/16 08:23:26;;;;;;;79.65;26.85;;;;;;;;;;4969171;28;20023;-37
2021/12/16 08:25:52;;;;;;;75.75;25.38;;;;;;;;;;4970347;28;20141;-38
2021/12/16 08:28:18;;;;;;;86.00;26.38;;;;;;;;;;4968460;28;20126;-39
2021/12/16 08:30:46;;;;;;;77.35;25.83;;;;;;;;;;4967907;28;20030;-38
2021/12/16 08:33:13;;;;;;;70.68;24.70;;;;;;;;;;4969984;28;20618;-36
2021/12/16 08:35:41;;;;;;;72.03;25.60;;;;;;;;;;4970613;28;20031;-38
2021/12/16 08:38:11;;;;;;;83.45;27.08;;;;;;;;;;4969358;28;20031;-38
2021/12/16 08:40:39;;;;;;;76.40;24.92;;;;;;;;;;4972264;28;20035;-41
2021/12/16 08:43:05;;;;;;;69.15;25.17;;;;;;;;;;4969978;28;20510;-40
2021/12/16 08:45:32;;;;;;;72.78;24.67;;;;;;;;;;4972255;28;20366;-39
2021/12/16 08:47:59;;;;;;;75.90;26.23;;;;;;;;;;4972819;28;20026;-43
2021/12/16 08:50:27;;;;;;;64.00;24.08;;;;;;;;;;4970102;28;20417;-41
2021/12/16 08:52:54;;;;;;;71.45;23.88;;;;;;;;;;4970441;28;20505;-38
2021/12/16 08:55:20;;;;;;;72.05;23.55;;;;;;;;;;4971645;28;20034;-39
2021/12/16 08:57:46;;;;;;;69.35;23.83;;;;;;;;;;4971862;28;20429;-39
2021/12/16 09:00:15;;;;;;;69.00;22.92;;;;;;;;;;4971860;28;20062;-37
2021/12/16 09:02:41;;;;;;;71.65;23.58;;;;;;;;;;4972627;28;20038;-39
2021/12/16 09:05:08;;;;;;;68.78;22.80;;;;;;;;;;4963796;28;20038;-39
2021/12/16 09:07:34;;;;;;;60.97;22.92;;;;;;;;;;4968442;28;20077;-42
2021/12/16 09:10:00;;;;;;;73.00;23.77;;;;;;;;;;4970331;28;20061;-42
2021/12/16 09:15:04;;;;;;;62.90;22.33;;;;;;;;;;4966125;28;20042;-37
2021/12/16 09:17:30;;;;;;;66.57;22.52;;;;;;;;;;4966395;28;20039;-37
2021/12/16 09:19:56;;;;;;;63.95;24.38;;;;;;;;;;4971014;28;20122;-39
2021/12/16 09:22:23;;;;;;;54.95;20.70;;;;;;;;;;4971354;28;20359;-42
2021/12/16 09:24:50;;;;;;;59.65;21.58;;;;;;;;;;4970045;28;20050;-40
2021/12/16 09:27:17;;;;;;;65.57;21.58;;;;;;;;;;4970932;28;20023;-40
2021/12/16 09:29:44;;;;;;;60.75;21.58;;;;;;;;;;4972982;28;20552;-38
2021/12/16 09:32:10;;;;;;;65.68;21.55;;;;;;;;;;4969923;28;20466;-41
2021/12/16 09:34:37;;;;;;;55.65;20.25;;;;;;;;;;4970136;28;20661;-37
2021/12/16 09:37:03;;;;;;;50.03;18.42;;;;;;;;;;4963442;28;20062;-38
2021/12/16 09:39:29;;;;;;;50.80;20.98;;;;;;;;;;4968162;28;20093;-38
2021/12/16 09:41:57;;;;;;;58.95;19.17;;;;;;;;;;4972614;28;20470;-38
2021/12/16 09:44:24;;;;;;;42.17;18.00;;;;;;;;;;4973184;28;20030;-42
2021/12/16 09:46:50;;;;;;;43.55;17.30;;;;;;;;;;4970992;28;20085;-41
2021/12/16 09:49:17;;;;;;;48.80;18.05;;;;;;;;;;4970201;28;20026;-39
2021/12/16 09:51:43;;;;;;;43.53;16.52;;;;;;;;;;4968726;28;20019;-40
2021/12/16 09:54:11;;;;;;;41.28;16.50;;;;;;;;;;4964984;28;20100;-38
2021/12/16 09:56:39;;;;;;;39.03;15.70;;;;;;;;;;4970926;28;21048;-39
2021/12/16 09:59:07;;;;;;;39.17;15.88;;;;;;;;;;5023406;23;20050;-39
2021/12/16 10:01:33;;;;;;;41.97;16.63;;;;;;;;;;4991644;28;20038;-41
2021/12/16 10:04:03;;;;;;;33.70;14.82;;;;;;;;;;4995068;28;20058;-39
2021/12/16 10:06:29;;;;;;;40.08;13.98;;;;;;;;;;4993817;28;20014;-42
2021/12/16 10:08:55;;;;;;;31.38;13.10;;;;;;;;;;4995833;28;20526;-41
2021/12/16 10:11:22;;;;;;;39.80;14.65;;;;;;;;;;4991448;28;20027;-41
2021/12/16 10:19:07;;;;;;;38.47;14.85;;;;;;;;;;4989473;28;20025;-40
2021/12/16 10:21:34;;;;;;;37.50;15.23;;;;;;;;;;4992403;28;20053;-40
2021/12/16 10:24:00;;;;;;;33.50;13.65;;;;;;;;;;4994281;28;20011;-41
2021/12/16 10:26:27;;;;;;;31.20;13.70;;;;;;;;;;4991835;28;20058;-42
2021/12/16 10:28:56;;;;;;;27.30;13.60;;;;;;;;;;4995529;28;20392;-38
2021/12/16 10:31:24;;;;;;;29.95;13.68;;;;;;;;;;4991766;28;20485;-37
2021/12/16 10:33:50;;;;;;;31.63;13.70;;;;;;;;;;4997332;28;20041;-36
2021/12/16 10:36:30;;;;;;;25.17;12.43;;;;;;;;;;4990179;28;20018;-42
2021/12/16 10:38:56;;;;;;;29.70;13.80;;;;;;;;;;4988465;28;20054;-45
2021/12/16 10:41:24;;;;;;;31.20;13.82;;;;;;;;;;4988256;28;20026;-41
2021/12/16 10:44:01;;;;;;;21.20;9.57;;;;;;;;;;4990576;28;20626;-40
2021/12/16 10:46:29;;;;;;;25.98;10.73;;;;;;;;;;4988741;28;20069;-41
2021/12/16 10:48:55;;;;;;;23.67;11.23;;;;;;;;;;4986097;28;20075;-41
2021/12/16 10:51:26;;;;;;;23.30;10.73;;;;;;;;;;4984899;28;20042;-42
2021/12/16 10:54:10;;;;;;;22.40;10.48;;;;;;;;;;4993887;28;20045;-42
2021/12/16 10:56:36;;;;;;;15.90;8.00;;;;;;;;;;4995088;28;20034;-40
2021/12/16 10:59:22;;;;;;;18.67;8.20;;;;;;;;;;4989572;28;20084;-43
2021/12/16 11:01:59;;;;;;;16.27;7.70;;;;;;;;;;4983396;28;20046;-42
2021/12/16 11:04:31;;;;;;;18.25;7.40;;;;;;;;;;4993184;28;20025;-41
2021/12/16 11:06:57;;;;;;;15.10;7.32;;;;;;;;;;4994524;28;20056;-38
2021/12/16 11:09:23;;;;;;;14.20;6.75;;;;;;;;;;4991236;28;20030;-39
2021/12/16 11:12:04;;;;;;;12.07;5.70;;;;;;;;;;4991420;28;20397;-39
2021/12/16 11:14:30;;;;;;;12.57;4.70;;;;;;;;;;4994183;28;20061;-38
2021/12/16 11:16:58;;;;;;;11.52;4.70;;;;;;;;;;4994864;28;20455;-39
2021/12/16 11:19:43;;;;;;;23.17;7.20;;;;;;;;;;4998414;28;20591;-39
2021/12/16 11:22:09;;;;;;;15.07;5.10;;;;;;;;;;4993388;28;20026;-39
2021/12/16 11:24:36;;;;;;;9.50;4.60;;;;;;;;;;4998082;28;20114;-36
2021/12/16 11:27:20;;;;;;;13.60;6.28;;;;;;;;;;4999753;28;20023;-36
2021/12/16 11:29:47;;;;;;;13.57;5.55;;;;;;;;;;4987428;28;20140;-40
2021/12/16 11:32:31;;;;;;;14.30;6.10;;;;;;;;;;4989305;28;20030;-40
2021/12/16 11:34:57;;;;;;;10.77;6.25;;;;;;;;;;4985809;28;20061;-38
2021/12/16 11:37:24;;;;;;;10.95;5.25;;;;;;;;;;4995349;28;20022;-39
2021/12/16 11:39:50;;;;;;;14.27;4.97;;;;;;;;;;4991936;28;20038;-41
2021/12/16 11:42:16;;;;;;;12.05;4.95;;;;;;;;;;4996127;28;20030;-40
2021/12/16 11:44:43;;;;;;;13.55;3.97;;;;;;;;;;4991395;28;20105;-40
2021/12/16 11:47:20;;;;;;;8.23;3.92;;;;;;;;;;4992266;28;20024;-40
2021/12/16 11:49:53;;;;;;;7.07;3.70;;;;;;;;;;4993096;28;20025;-39
2021/12/16 11:52:19;;;;;;;8.32;4.20;;;;;;;;;;4993424;28;20050;-42
2021/12/16 11:54:46;;;;;;;10.13;3.80;;;;;;;;;;4991325;28;20060;-41
2021/12/16 11:57:21;;;;;;;9.57;3.33;;;;;;;;;;4995437;28;20026;-39
2021/12/16 11:59:50;;;;;;;7.50;3.75;;;;;;;;;;4989704;28;20299;-38
2021/12/16 12:02:33;;;;;;;8.75;3.10;;;;;;;;;;4990513;28;20038;-37
2021/12/16 12:05:19;;;;;;;10.90;3.60;;;;;;;;;;4987917;28;20018;-38
2021/12/16 12:07:46;;;;;;;6.95;3.13;;;;;;;;;;4991603;28;20022;-40
2021/12/16 12:10:14;;;;;;;7.18;3.20;;;;;;;;;;4994189;28;20160;-41
2021/12/16 12:12:46;;;;;;;13.63;3.63;;;;;;;;;;4993366;28;20102;-40
2021/12/16 12:15:12;;;;;;;8.85;3.10;;;;;;;;;;5003261;28;20033;-39
2021/12/16 12:17:44;;;;;;;8.63;3.10;;;;;;;;;;4994821;28;20026;-40
2021/12/16 12:20:10;;;;;;;13.38;4.05;;;;;;;;;;4992660;28;20053;-38
2021/12/16 12:22:36;;;;;;;7.57;3.22;;;;;;;;;;4991996;28;20049;-37
2021/12/16 12:25:03;;;;;;;9.57;3.22;;;;;;;;;;4986566;28;20123;-41
2021/12/16 12:27:29;;;;;;;11.00;3.65;;;;;;;;;;4985315;28;20022;-43
2021/12/16 12:29:59;;;;;;;9.88;4.18;;;;;;;;;;4987738;28;20020;-41
2021/12/16 12:32:25;;;;;;;8.05;3.45;;;;;;;;;;4983210;28;20080;-38
2021/12/16 12:35:03;;;;;;;9.73;3.67;;;;;;;;;;4990225;28;20026;-40
2021/12/16 12:37:31;;;;;;;6.55;3.45;;;;;;;;;;4995881;28;20022;-43
2021/12/16 12:40:04;;;;;;;7.10;3.03;;;;;;;;;;4992377;28;20022;-40
2021/12/16 12:42:30;;;;;;;9.25;3.38;;;;;;;;;;4989876;28;20073;-36
2021/12/16 12:44:56;;;;;;;13.52;6.57;;;;;;;;;;4991621;28;20057;-38
2021/12/16 12:47:25;;;;;;;11.82;3.70;;;;;;;;;;4989642;28;20026;-41
2021/12/16 12:49:52;;;;;;;10.95;3.67;;;;;;;;;;4992482;28;20018;-41
2021/12/16 12:52:20;;;;;;;12.02;3.47;;;;;;;;;;4994075;28;20065;-40
2021/12/16 12:54:57;;;;;;;11.43;3.67;;;;;;;;;;4993350;28;20018;-39
2021/12/16 12:57:25;;;;;;;17.50;4.47;;;;;;;;;;4996685;28;20038;-40
2021/12/16 12:59:51;;;;;;;12.15;4.47;;;;;;;;;;5001203;28;20405;-40
2021/12/16 13:02:20;;;;;;;9.75;3.90;;;;;;;;;;5010223;28;20038;-40
2021/12/16 13:04:52;;;;;;;9.98;3.67;;;;;;;;;;4996222;28;20018;-36
2021/12/16 13:07:18;;;;;;;8.85;3.38;;;;;;;;;;4986636;28;21740;-40
2021/12/16 13:09:53;;;;;;;14.98;4.10;;;;;;;;;;4989293;28;20105;-38
2021/12/16 13:12:44;;;;;;;12.73;3.80;;;;;;;;;;4982995;28;20442;-41
2021/12/16 13:15:28;;;;;;;7.45;3.53;;;;;;;;;;4988219;28;20022;-42
2021/12/16 13:23:34;;;;;;;12.65;3.47;;;;;;;;;;4995565;28;20057;-39
2021/12/16 13:26:32;;;;;;;11.18;3.60;;;;;;;;;;4988169;28;20054;-38
2021/12/16 13:29:05;;;;;;;10.55;3.00;;;;;;;;;;4991771;28;20112;-41
2021/12/16 13:31:34;;;;;;;6.28;2.80;;;;;;;;;;5001466;28;20052;-37
2021/12/16 13:34:02;;;;;;;9.82;3.13;;;;;;;;;;4997537;28;20022;-40
2021/12/16 13:36:44;;;;;;;9.75;3.17;;;;;;;;;;4987998;28;20041;-41
2021/12/16 13:39:16;;;;;;;7.78;2.65;;;;;;;;;;4987973;28;20037;-41
2021/12/16 13:41:54;;;;;;;10.40;3.20;;;;;;;;;;4999227;28;20108;-41
2021/12/16 13:44:34;;;;;;;9.98;3.08;;;;;;;;;;4999850;28;20520;-40
2021/12/16 13:47:33;;;;;;;9.93;2.92;;;;;;;;;;4985879;28;20026;-39
2021/12/16 14:04:36;;;;;;;5.37;2.17;;;;;;;;;;4989257;28;20037;-38
2021/12/16 14:06:36;;;;;;;7.72;2.83;;;;;;;;;;4982982;28;20080;-40
2021/12/16 14:09:13;;;;;;;5.60;2.50;;;;;;;;;;4993032;28;20624;-39
2021/12/16 14:15:14;;;;;;;15.23;4.10;;;;;;;;;;4954319;28;20406;-37
2021/12/16 14:17:54;;;;;;;9.35;2.45;;;;;;;;;;4992440;28;20030;-40
2021/12/16 14:23:18;;;;;;;21.40;2.85;;;;;;;;;;4989457;28;20090;-36
2021/12/16 14:26:13;;;;;;;12.80;2.90;;;;;;;;;;4986505;28;20022;-36
2021/12/16 14:31:45;;;;;;;9.88;3.72;;;;;;;;;;4987610;28;20116;-37
2021/12/16 14:39:41;;;;;;;9.93;2.88;;;;;;;;;;4984597;28;20046;-37
2021/12/16 14:49:48;;;;;;;12.18;3.20;;;;;;;;;;5007540;28;20030;-38
2021/12/16 14:52:15;;;;;;;13.90;3.22;;;;;;;;;;4992635;28;20014;-36
2021/12/16 14:54:54;;;;;;;11.63;2.67;;;;;;;;;;5003068;28;20095;-37
2021/12/16 14:57:24;;;;;;;8.50;2.83;;;;;;;;;;4981805;28;20337;-36
2021/12/16 14:59:51;;;;;;;11.60;3.60;;;;;;;;;;4990532;28;20131;-36
2021/12/16 15:02:17;;;;;;;11.52;3.63;;;;;;;;;;4998053;28;20023;-37
2021/12/16 15:04:43;;;;;;;15.50;3.72;;;;;;;;;;5008830;28;20069;-36
2021/12/16 15:07:11;;;;;;;21.35;4.68;;;;;;;;;;4995751;28;20046;-36
2021/12/16 15:09:40;;;;;;;6.72;2.70;;;;;;;;;;5005285;28;20018;-37
2021/12/16 15:12:20;;;;;;;10.35;3.85;;;;;;;;;;4990032;28;20022;-36
2021/12/16 15:15:02;;;;;;;10.88;2.95;;;;;;;;;;4981245;28;20160;-37
2021/12/16 15:35:43;;;;;;;14.20;4.32;;;;;;;;;;4991911;28;20037;-37
2021/12/16 15:44:59;;;;;;;15.00;4.00;;;;;;;;;;4991878;28;20073;-38
2021/12/16 15:47:25;;;;;;;17.08;4.28;;;;;;;;;;5001954;28;20019;-38
2021/12/16 15:49:52;;;;;;;8.48;3.17;;;;;;;;;;4996233;28;20056;-36
2021/12/16 15:52:18;;;;;;;22.45;5.45;;;;;;;;;;4986912;28;20027;-37
2021/12/16 15:54:49;;;;;;;11.73;3.65;;;;;;;;;;4991829;28;20031;-37
2021/12/16 15:57:16;;;;;;;13.27;4.35;;;;;;;;;;4996792;28;20084;-38
2021/12/16 15:59:48;;;;;;;13.20;3.80;;;;;;;;;;5012951;23;20049;-38
2021/12/16 16:02:16;;;;;;;9.15;4.00;;;;;;;;;;4990968;28;20069;-39
2021/12/16 16:04:42;;;;;;;18.02;4.18;;;;;;;;;;4988115;28;20441;-39
2021/12/16 16:07:09;;;;;;;15.70;4.70;;;;;;;;;;4997668;28;20029;-39
2021/12/16 16:09:40;;;;;;;12.80;4.10;;;;;;;;;;4993571;28;20427;-39
2021/12/16 16:12:09;;;;;;;15.57;4.90;;;;;;;;;;4999560;28;20056;-39
2021/12/16 16:14:37;;;;;;;15.13;4.15;;;;;;;;;;4985307;28;20022;-36
2021/12/16 16:17:13;;;;;;;13.50;3.47;;;;;;;;;;4980977;28;20149;-38
2021/12/16 16:19:40;;;;;;;13.65;3.90;;;;;;;;;;4993090;28;20049;-43
2021/12/16 16:22:06;;;;;;;12.07;4.10;;;;;;;;;;4989208;28;20033;-43
2021/12/16 16:24:41;;;;;;;11.20;3.60;;;;;;;;;;4983833;28;20133;-42
2021/12/16 16:27:08;;;;;;;16.05;4.47;;;;;;;;;;4990971;28;20030;-44
2021/12/16 16:29:35;;;;;;;11.73;3.70;;;;;;;;;;4990677;28;20034;-43
2021/12/16 16:32:01;;;;;;;12.10;3.15;;;;;;;;;;4990798;28;20177;-43
2021/12/16 16:34:29;;;;;;;9.38;3.72;;;;;;;;;;4989863;28;20066;-43
2021/12/16 16:36:57;;;;;;;16.80;4.10;;;;;;;;;;4990821;28;20041;-43
2021/12/16 16:39:27;;;;;;;11.23;3.88;;;;;;;;;;4988739;28;20452;-42
2021/12/16 16:42:02;;;;;;;8.23;3.58;;;;;;;;;;4983841;28;20022;-42
2021/12/16 16:44:29;;;;;;;17.95;3.95;;;;;;;;;;4968229;28;20057;-43
2021/12/16 16:47:01;;;;;;;15.50;4.60;;;;;;;;;;4988344;28;20031;-45
2021/12/16 16:49:35;;;;;;;11.85;4.35;;;;;;;;;;4990235;28;20458;-43
2021/12/16 16:52:04;;;;;;;14.27;3.85;;;;;;;;;;4990421;28;20037;-44
2021/12/16 16:54:32;;;;;;;9.23;3.65;;;;;;;;;;4989006;28;20029;-42
2021/12/16 16:57:04;;;;;;;11.65;4.60;;;;;;;;;;4990470;28;20042;-42
2021/12/16 16:59:33;;;;;;;15.45;4.45;;;;;;;;;;4990072;28;20076;-43
2021/12/16 17:02:01;;;;;;;15.77;4.03;;;;;;;;;;4991170;28;20395;-43
2021/12/16 17:04:28;;;;;;;15.82;4.20;;;;;;;;;;4990016;28;20030;-42
2021/12/16 17:06:56;;;;;;;16.35;4.45;;;;;;;;;;4990441;28;20026;-43
2021/12/16 17:09:23;;;;;;;9.30;4.13;;;;;;;;;;4990034;28;20030;-44
2021/12/16 17:11:52;;;;;;;19.63;5.22;;;;;;;;;;4988405;28;20528;-43
2021/12/16 17:14:35;;;;;;;18.65;4.72;;;;;;;;;;4988790;28;20477;-43
2021/12/16 17:20:11;;;;;;;13.82;5.60;;;;;;;;;;4969745;28;20044;-49
2021/12/16 17:22:44;;;;;;;18.77;6.80;;;;;;;;;;4990411;28;20057;-43
2021/12/16 17:25:11;;;;;;;21.45;6.97;;;;;;;;;;4989676;28;20101;-44
2021/12/16 17:27:40;;;;;;;23.23;6.95;;;;;;;;;;4989650;28;20026;-43
2021/12/16 17:30:10;;;;;;;15.23;7.07;;;;;;;;;;4986069;28;20476;-43
2021/12/16 17:32:39;;;;;;;17.15;8.13;;;;;;;;;;4987309;28;20054;-42
2021/12/16 17:35:09;;;;;;;23.17;8.40;;;;;;;;;;4979120;28;20095;-44
2021/12/16 17:37:39;;;;;;;16.33;9.00;;;;;;;;;;4985475;28;20464;-43
2021/12/16 17:40:08;;;;;;;18.90;8.38;;;;;;;;;;4973974;28;20475;-43
2021/12/16 17:42:39;;;;;;;23.02;9.38;;;;;;;;;;4991797;28;20034;-44
2021/12/16 17:45:20;;;;;;;19.00;8.15;;;;;;;;;;4991379;28;20034;-43
2021/12/16 17:47:47;;;;;;;26.98;9.55;;;;;;;;;;4991345;28;20037;-43
2021/12/16 17:50:15;;;;;;;20.23;8.63;;;;;;;;;;4990836;28;20077;-43
2021/12/16 17:52:44;;;;;;;24.02;9.10;;;;;;;;;;4990815;28;20078;-43
2021/12/16 17:55:13;;;;;;;21.80;8.25;;;;;;;;;;4988148;28;20030;-44
2021/12/16 17:57:41;;;;;;;19.83;7.97;;;;;;;;;;4987331;28;20047;-44
2021/12/16 18:00:12;;;;;;;23.10;9.25;;;;;;;;;;4987817;28;20049;-44
2021/12/16 18:02:44;;;;;;;27.58;9.15;;;;;;;;;;4988603;28;20394;-42
2021/12/16 18:05:11;;;;;;;24.13;8.85;;;;;;;;;;4986577;28;20034;-44